sensor_id;sensor_type;location;lat;lon;timestamp;P1;durP1;ratioP1;P2;durP2;ratioP2
44189;SDS011;29856;52.144;5.430;2023-04-03T00:01:25;4.13;;;1.30;;
44189;SDS011;29856;52.144;5.430;2023-04-03T00:03:51;1.85;;;1.25;;
44189;SDS011;29856;52.144;5.430;2023-04-03T00:06:16;2.05;;;1.05;;
44189;SDS011;29856;52.144;5.430;2023-04-03T00:08:42;3.60;;;1.30;;
44189;SDS011;29856;52.144;5.430;2023-04-03T00:11:08;3.78;;;1.35;;
44189;SDS011;29856;52.144;5.430;2023-04-03T00:13:34;3.70;;;1.20;;
44189;SDS011;29856;52.144;5.430;2023-04-03T00:16:00;4.85;;;1.52;;
44189;SDS011;29856;52.144;5.430;2023-04-03T00:18:26;2.42;;;1.30;;
44189;SDS011;29856;52.144;5.430;2023-04-03T00:20:51;3.00;;;1.50;;
44189;SDS011;29856;52.144;5.430;2023-04-03T00:23:17;2.17;;;1.15;;
44189;SDS011;29856;52.144;5.430;2023-04-03T00:25:42;4.10;;;1.50;;
44189;SDS011;29856;52.144;5.430;2023-04-03T00:28:08;5.18;;;1.50;;
44189;SDS011;29856;52.144;5.430;2023-04-03T00:30:34;2.80;;;1.50;;
44189;SDS011;29856;52.144;5.430;2023-04-03T00:33:00;2.58;;;1.30;;
44189;SDS011;29856;52.144;5.430;2023-04-03T00:35:26;2.78;;;1.48;;
44189;SDS011;29856;52.144;5.430;2023-04-03T00:37:52;2.90;;;1.40;;
44189;SDS011;29856;52.144;5.430;2023-04-03T00:40:19;3.83;;;1.65;;
44189;SDS011;29856;52.144;5.430;2023-04-03T00:42:46;5.95;;;1.63;;
44189;SDS011;29856;52.144;5.430;2023-04-03T00:45:23;3.00;;;1.85;;
44189;SDS011;29856;52.144;5.430;2023-04-03T00:47:54;4.60;;;2.05;;
44189;SDS011;29856;52.144;5.430;2023-04-03T00:50:21;2.55;;;1.40;;
44189;SDS011;29856;52.144;5.430;2023-04-03T00:52:47;3.13;;;1.50;;
44189;SDS011;29856;52.144;5.430;2023-04-03T00:55:13;5.20;;;1.80;;
44189;SDS011;29856;52.144;5.430;2023-04-03T00:57:38;7.70;;;1.88;;
44189;SDS011;29856;52.144;5.430;2023-04-03T01:00:05;5.72;;;1.70;;
44189;SDS011;29856;52.144;5.430;2023-04-03T01:02:36;2.17;;;1.30;;
44189;SDS011;29856;52.144;5.430;2023-04-03T01:05:02;5.18;;;1.77;;
44189;SDS011;29856;52.144;5.430;2023-04-03T01:07:31;5.35;;;1.65;;
44189;SDS011;29856;52.144;5.430;2023-04-03T01:09:58;4.95;;;1.40;;
44189;SDS011;29856;52.144;5.430;2023-04-03T01:14:56;3.72;;;1.63;;
44189;SDS011;29856;52.144;5.430;2023-04-03T01:17:43;4.30;;;1.77;;
44189;SDS011;29856;52.144;5.430;2023-04-03T01:25:37;3.65;;;1.50;;
44189;SDS011;29856;52.144;5.430;2023-04-03T01:28:04;4.68;;;2.03;;
44189;SDS011;29856;52.144;5.430;2023-04-03T01:30:33;4.50;;;1.52;;
44189;SDS011;29856;52.144;5.430;2023-04-03T01:33:01;5.45;;;1.70;;
44189;SDS011;29856;52.144;5.430;2023-04-03T01:35:27;5.88;;;1.70;;
44189;SDS011;29856;52.144;5.430;2023-04-03T01:37:52;3.25;;;2.00;;
44189;SDS011;29856;52.144;5.430;2023-04-03T01:40:18;7.88;;;1.40;;
44189;SDS011;29856;52.144;5.430;2023-04-03T01:42:43;3.20;;;1.55;;
44189;SDS011;29856;52.144;5.430;2023-04-03T01:45:09;3.95;;;1.75;;
44189;SDS011;29856;52.144;5.430;2023-04-03T01:47:34;3.70;;;1.75;;
44189;SDS011;29856;52.144;5.430;2023-04-03T01:50:00;2.20;;;1.30;;
44189;SDS011;29856;52.144;5.430;2023-04-03T01:52:26;4.30;;;1.65;;
44189;SDS011;29856;52.144;5.430;2023-04-03T01:54:51;4.65;;;1.83;;
44189;SDS011;29856;52.144;5.430;2023-04-03T01:57:17;3.95;;;1.80;;
44189;SDS011;29856;52.144;5.430;2023-04-03T01:59:43;6.22;;;1.90;;
44189;SDS011;29856;52.144;5.430;2023-04-03T02:02:08;2.30;;;1.48;;
44189;SDS011;29856;52.144;5.430;2023-04-03T02:04:34;7.78;;;2.13;;
44189;SDS011;29856;52.144;5.430;2023-04-03T02:06:59;5.30;;;2.50;;
44189;SDS011;29856;52.144;5.430;2023-04-03T02:09:25;5.53;;;1.70;;
44189;SDS011;29856;52.144;5.430;2023-04-03T02:11:50;8.15;;;1.83;;
44189;SDS011;29856;52.144;5.430;2023-04-03T02:14:17;5.13;;;2.05;;
44189;SDS011;29856;52.144;5.430;2023-04-03T02:16:42;8.18;;;1.90;;
44189;SDS011;29856;52.144;5.430;2023-04-03T02:19:08;6.57;;;1.92;;
44189;SDS011;29856;52.144;5.430;2023-04-03T02:21:33;4.97;;;1.83;;
44189;SDS011;29856;52.144;5.430;2023-04-03T02:23:59;4.55;;;1.50;;
44189;SDS011;29856;52.144;5.430;2023-04-03T02:26:24;5.72;;;2.17;;
44189;SDS011;29856;52.144;5.430;2023-04-03T02:28:50;7.97;;;1.70;;
44189;SDS011;29856;52.144;5.430;2023-04-03T02:31:15;6.78;;;1.88;;
44189;SDS011;29856;52.144;5.430;2023-04-03T02:33:41;2.65;;;1.70;;
44189;SDS011;29856;52.144;5.430;2023-04-03T02:36:07;5.45;;;1.73;;
44189;SDS011;29856;52.144;5.430;2023-04-03T02:38:33;4.15;;;2.38;;
44189;SDS011;29856;52.144;5.430;2023-04-03T02:40:59;6.43;;;1.58;;
44189;SDS011;29856;52.144;5.430;2023-04-03T02:43:26;8.40;;;2.10;;
44189;SDS011;29856;52.144;5.430;2023-04-03T02:45:52;2.80;;;1.98;;
44189;SDS011;29856;52.144;5.430;2023-04-03T02:48:18;4.30;;;1.77;;
44189;SDS011;29856;52.144;5.430;2023-04-03T02:50:43;3.75;;;1.70;;
44189;SDS011;29856;52.144;5.430;2023-04-03T02:53:09;3.72;;;2.10;;
44189;SDS011;29856;52.144;5.430;2023-04-03T02:55:34;4.43;;;2.17;;
44189;SDS011;29856;52.144;5.430;2023-04-03T02:58:00;4.97;;;2.03;;
44189;SDS011;29856;52.144;5.430;2023-04-03T03:00:25;4.47;;;2.28;;
44189;SDS011;29856;52.144;5.430;2023-04-03T03:02:51;6.13;;;2.00;;
44189;SDS011;29856;52.144;5.430;2023-04-03T03:05:16;3.88;;;2.10;;
44189;SDS011;29856;52.144;5.430;2023-04-03T03:07:42;4.18;;;1.75;;
44189;SDS011;29856;52.144;5.430;2023-04-03T03:10:07;5.38;;;1.85;;
44189;SDS011;29856;52.144;5.430;2023-04-03T03:12:33;4.55;;;1.85;;
44189;SDS011;29856;52.144;5.430;2023-04-03T03:14:59;5.70;;;1.98;;
44189;SDS011;29856;52.144;5.430;2023-04-03T03:17:24;4.95;;;1.95;;
44189;SDS011;29856;52.144;5.430;2023-04-03T03:19:50;6.45;;;1.83;;
44189;SDS011;29856;52.144;5.430;2023-04-03T03:22:16;6.38;;;2.05;;
44189;SDS011;29856;52.144;5.430;2023-04-03T03:24:41;4.55;;;1.48;;
44189;SDS011;29856;52.144;5.430;2023-04-03T03:27:07;4.22;;;1.95;;
44189;SDS011;29856;52.144;5.430;2023-04-03T03:29:32;3.92;;;1.80;;
44189;SDS011;29856;52.144;5.430;2023-04-03T03:31:58;5.60;;;1.63;;
44189;SDS011;29856;52.144;5.430;2023-04-03T03:34:23;4.70;;;2.13;;
44189;SDS011;29856;52.144;5.430;2023-04-03T03:36:49;4.20;;;1.60;;
44189;SDS011;29856;52.144;5.430;2023-04-03T03:39:14;5.10;;;2.50;;
44189;SDS011;29856;52.144;5.430;2023-04-03T03:41:40;6.13;;;1.77;;
44189;SDS011;29856;52.144;5.430;2023-04-03T03:44:05;7.00;;;1.85;;
44189;SDS011;29856;52.144;5.430;2023-04-03T03:46:31;6.30;;;2.13;;
44189;SDS011;29856;52.144;5.430;2023-04-03T03:48:57;6.30;;;2.28;;
44189;SDS011;29856;52.144;5.430;2023-04-03T03:51:23;4.75;;;2.00;;
44189;SDS011;29856;52.144;5.430;2023-04-03T03:53:48;3.95;;;1.75;;
44189;SDS011;29856;52.144;5.430;2023-04-03T03:56:14;9.77;;;2.70;;
44189;SDS011;29856;52.144;5.430;2023-04-03T03:58:39;5.13;;;2.17;;
44189;SDS011;29856;52.144;5.430;2023-04-03T04:01:05;7.40;;;2.33;;
44189;SDS011;29856;52.144;5.430;2023-04-03T04:03:32;5.93;;;2.33;;
44189;SDS011;29856;52.144;5.430;2023-04-03T04:05:57;6.30;;;2.20;;
44189;SDS011;29856;52.144;5.430;2023-04-03T04:08:23;2.53;;;2.00;;
44189;SDS011;29856;52.144;5.430;2023-04-03T04:10:49;6.57;;;2.55;;
44189;SDS011;29856;52.144;5.430;2023-04-03T04:13:15;5.60;;;2.33;;
44189;SDS011;29856;52.144;5.430;2023-04-03T04:15:41;9.13;;;2.25;;
44189;SDS011;29856;52.144;5.430;2023-04-03T04:18:07;7.43;;;2.50;;
44189;SDS011;29856;52.144;5.430;2023-04-03T04:20:33;5.30;;;2.03;;
44189;SDS011;29856;52.144;5.430;2023-04-03T04:22:58;7.65;;;2.47;;
44189;SDS011;29856;52.144;5.430;2023-04-03T04:25:24;5.85;;;2.10;;
44189;SDS011;29856;52.144;5.430;2023-04-03T04:27:50;6.15;;;2.83;;
44189;SDS011;29856;52.144;5.430;2023-04-03T04:30:16;7.85;;;2.75;;
44189;SDS011;29856;52.144;5.430;2023-04-03T04:32:41;3.63;;;1.83;;
44189;SDS011;29856;52.144;5.430;2023-04-03T04:35:07;4.43;;;2.08;;
44189;SDS011;29856;52.144;5.430;2023-04-03T04:37:33;5.15;;;2.22;;
44189;SDS011;29856;52.144;5.430;2023-04-03T04:39:58;7.47;;;2.33;;
44189;SDS011;29856;52.144;5.430;2023-04-03T04:42:24;11.55;;;3.30;;
44189;SDS011;29856;52.144;5.430;2023-04-03T04:44:49;4.40;;;2.20;;
44189;SDS011;29856;52.144;5.430;2023-04-03T04:47:15;9.95;;;2.72;;
44189;SDS011;29856;52.144;5.430;2023-04-03T04:49:40;6.53;;;2.20;;
44189;SDS011;29856;52.144;5.430;2023-04-03T04:52:06;4.28;;;2.00;;
44189;SDS011;29856;52.144;5.430;2023-04-03T04:54:31;7.95;;;2.17;;
44189;SDS011;29856;52.144;5.430;2023-04-03T04:56:57;5.50;;;2.47;;
44189;SDS011;29856;52.144;5.430;2023-04-03T04:59:23;7.95;;;2.80;;
44189;SDS011;29856;52.144;5.430;2023-04-03T05:01:49;4.25;;;1.95;;
44189;SDS011;29856;52.144;5.430;2023-04-03T05:04:14;9.05;;;2.63;;
44189;SDS011;29856;52.144;5.430;2023-04-03T05:06:40;6.82;;;2.55;;
44189;SDS011;29856;52.144;5.430;2023-04-03T05:09:05;9.98;;;2.15;;
44189;SDS011;29856;52.144;5.430;2023-04-03T05:11:31;8.27;;;2.40;;
44189;SDS011;29856;52.144;5.430;2023-04-03T05:13:56;5.05;;;2.03;;
44189;SDS011;29856;52.144;5.430;2023-04-03T05:16:22;6.45;;;2.28;;
44189;SDS011;29856;52.144;5.430;2023-04-03T05:18:47;4.55;;;2.08;;
44189;SDS011;29856;52.144;5.430;2023-04-03T05:21:13;5.18;;;2.03;;
44189;SDS011;29856;52.144;5.430;2023-04-03T05:23:38;8.13;;;2.33;;
44189;SDS011;29856;52.144;5.430;2023-04-03T05:26:04;7.20;;;2.13;;
44189;SDS011;29856;52.144;5.430;2023-04-03T05:28:29;8.32;;;2.28;;
44189;SDS011;29856;52.144;5.430;2023-04-03T05:30:55;7.00;;;2.28;;
44189;SDS011;29856;52.144;5.430;2023-04-03T05:33:22;9.88;;;2.53;;
44189;SDS011;29856;52.144;5.430;2023-04-03T05:35:49;7.70;;;2.38;;
44189;SDS011;29856;52.144;5.430;2023-04-03T05:38:14;9.32;;;2.78;;
44189;SDS011;29856;52.144;5.430;2023-04-03T05:40:40;4.00;;;1.73;;
44189;SDS011;29856;52.144;5.430;2023-04-03T05:43:05;6.13;;;2.30;;
44189;SDS011;29856;52.144;5.430;2023-04-03T05:45:31;5.13;;;2.35;;
44189;SDS011;29856;52.144;5.430;2023-04-03T05:47:56;6.78;;;2.15;;
44189;SDS011;29856;52.144;5.430;2023-04-03T05:50:22;6.65;;;2.50;;
44189;SDS011;29856;52.144;5.430;2023-04-03T05:52:48;6.50;;;2.50;;
44189;SDS011;29856;52.144;5.430;2023-04-03T05:55:16;6.47;;;1.90;;
44189;SDS011;29856;52.144;5.430;2023-04-03T05:57:41;10.98;;;2.15;;
44189;SDS011;29856;52.144;5.430;2023-04-03T06:00:07;9.93;;;2.65;;
44189;SDS011;29856;52.144;5.430;2023-04-03T06:02:36;10.45;;;2.70;;
44189;SDS011;29856;52.144;5.430;2023-04-03T06:05:02;6.93;;;2.40;;
44189;SDS011;29856;52.144;5.430;2023-04-03T06:07:27;12.35;;;2.67;;
44189;SDS011;29856;52.144;5.430;2023-04-03T06:09:54;6.85;;;2.28;;
44189;SDS011;29856;52.144;5.430;2023-04-03T06:12:21;8.85;;;2.38;;
44189;SDS011;29856;52.144;5.430;2023-04-03T06:14:47;5.78;;;2.60;;
44189;SDS011;29856;52.144;5.430;2023-04-03T06:17:14;9.13;;;2.50;;
44189;SDS011;29856;52.144;5.430;2023-04-03T06:19:40;9.13;;;2.13;;
44189;SDS011;29856;52.144;5.430;2023-04-03T06:22:06;12.88;;;2.33;;
44189;SDS011;29856;52.144;5.430;2023-04-03T06:24:32;6.95;;;2.10;;
44189;SDS011;29856;52.144;5.430;2023-04-03T06:26:58;7.45;;;2.25;;
44189;SDS011;29856;52.144;5.430;2023-04-03T06:29:24;7.18;;;2.17;;
44189;SDS011;29856;52.144;5.430;2023-04-03T06:31:50;6.00;;;2.28;;
44189;SDS011;29856;52.144;5.430;2023-04-03T06:34:17;11.35;;;2.45;;
44189;SDS011;29856;52.144;5.430;2023-04-03T06:36:42;7.70;;;2.35;;
44189;SDS011;29856;52.144;5.430;2023-04-03T06:39:09;5.97;;;2.30;;
44189;SDS011;29856;52.144;5.430;2023-04-03T06:41:39;9.32;;;2.28;;
44189;SDS011;29856;52.144;5.430;2023-04-03T06:44:04;11.63;;;2.45;;
44189;SDS011;29856;52.144;5.430;2023-04-03T06:46:30;7.03;;;2.53;;
44189;SDS011;29856;52.144;5.430;2023-04-03T06:48:55;7.63;;;2.30;;
44189;SDS011;29856;52.144;5.430;2023-04-03T06:51:22;10.00;;;2.67;;
44189;SDS011;29856;52.144;5.430;2023-04-03T06:53:51;10.75;;;2.22;;
44189;SDS011;29856;52.144;5.430;2023-04-03T06:56:18;5.88;;;2.42;;
44189;SDS011;29856;52.144;5.430;2023-04-03T06:58:45;5.60;;;2.03;;
44189;SDS011;29856;52.144;5.430;2023-04-03T07:01:11;8.75;;;2.13;;
44189;SDS011;29856;52.144;5.430;2023-04-03T07:03:38;7.60;;;2.83;;
44189;SDS011;29856;52.144;5.430;2023-04-03T07:06:04;7.55;;;2.22;;
44189;SDS011;29856;52.144;5.430;2023-04-03T07:08:31;3.28;;;1.85;;
44189;SDS011;29856;52.144;5.430;2023-04-03T07:10:58;6.82;;;2.55;;
44189;SDS011;29856;52.144;5.430;2023-04-03T07:13:23;9.73;;;2.70;;
44189;SDS011;29856;52.144;5.430;2023-04-03T07:15:49;7.43;;;2.20;;
44189;SDS011;29856;52.144;5.430;2023-04-03T07:18:14;7.20;;;2.63;;
44189;SDS011;29856;52.144;5.430;2023-04-03T07:20:40;5.72;;;2.00;;
44189;SDS011;29856;52.144;5.430;2023-04-03T07:23:05;6.95;;;1.75;;
44189;SDS011;29856;52.144;5.430;2023-04-03T07:25:31;5.57;;;1.80;;
44189;SDS011;29856;52.144;5.430;2023-04-03T07:27:57;6.95;;;2.17;;
44189;SDS011;29856;52.144;5.430;2023-04-03T07:30:22;8.32;;;2.17;;
44189;SDS011;29856;52.144;5.430;2023-04-03T07:32:48;4.22;;;1.80;;
44189;SDS011;29856;52.144;5.430;2023-04-03T07:35:14;7.35;;;1.90;;
44189;SDS011;29856;52.144;5.430;2023-04-03T07:37:40;12.80;;;2.90;;
44189;SDS011;29856;52.144;5.430;2023-04-03T07:40:05;7.68;;;2.20;;
44189;SDS011;29856;52.144;5.430;2023-04-03T07:42:31;3.95;;;1.80;;
44189;SDS011;29856;52.144;5.430;2023-04-03T07:44:57;7.60;;;2.15;;
44189;SDS011;29856;52.144;5.430;2023-04-03T07:47:22;11.02;;;2.22;;
44189;SDS011;29856;52.144;5.430;2023-04-03T07:49:48;8.80;;;2.33;;
44189;SDS011;29856;52.144;5.430;2023-04-03T07:52:14;6.80;;;2.42;;
44189;SDS011;29856;52.144;5.430;2023-04-03T07:54:39;5.97;;;2.08;;
44189;SDS011;29856;52.144;5.430;2023-04-03T07:57:05;6.13;;;2.40;;
44189;SDS011;29856;52.144;5.430;2023-04-03T07:59:30;6.72;;;1.90;;
44189;SDS011;29856;52.144;5.430;2023-04-03T08:01:56;3.45;;;2.13;;
44189;SDS011;29856;52.144;5.430;2023-04-03T08:04:22;7.85;;;2.50;;
44189;SDS011;29856;52.144;5.430;2023-04-03T08:06:47;11.20;;;2.25;;
44189;SDS011;29856;52.144;5.430;2023-04-03T08:09:16;5.13;;;1.77;;
44189;SDS011;29856;52.144;5.430;2023-04-03T08:11:42;6.50;;;1.73;;
44189;SDS011;29856;52.144;5.430;2023-04-03T08:14:08;3.95;;;1.83;;
44189;SDS011;29856;52.144;5.430;2023-04-03T08:16:33;7.38;;;2.22;;
44189;SDS011;29856;52.144;5.430;2023-04-03T08:18:59;4.05;;;1.75;;
44189;SDS011;29856;52.144;5.430;2023-04-03T08:21:24;8.27;;;1.92;;
44189;SDS011;29856;52.144;5.430;2023-04-03T08:23:50;4.70;;;1.92;;
44189;SDS011;29856;52.144;5.430;2023-04-03T08:26:17;4.97;;;1.70;;
44189;SDS011;29856;52.144;5.430;2023-04-03T08:28:44;1.58;;;1.05;;
44189;SDS011;29856;52.144;5.430;2023-04-03T08:31:11;5.22;;;1.70;;
44189;SDS011;29856;52.144;5.430;2023-04-03T08:33:39;9.57;;;2.30;;
44189;SDS011;29856;52.144;5.430;2023-04-03T08:36:05;8.57;;;1.58;;
44189;SDS011;29856;52.144;5.430;2023-04-03T08:38:32;5.50;;;1.50;;
44189;SDS011;29856;52.144;5.430;2023-04-03T08:41:06;6.97;;;1.95;;
44189;SDS011;29856;52.144;5.430;2023-04-03T08:46:32;6.05;;;1.55;;
44189;SDS011;29856;52.144;5.430;2023-04-03T08:49:02;3.47;;;1.70;;
44189;SDS011;29856;52.144;5.430;2023-04-03T08:51:29;2.42;;;1.40;;
44189;SDS011;29856;52.144;5.430;2023-04-03T08:53:57;3.20;;;1.05;;
44189;SDS011;29856;52.144;5.430;2023-04-03T08:56:27;5.68;;;1.42;;
44189;SDS011;29856;52.144;5.430;2023-04-03T08:58:56;3.78;;;1.33;;
44189;SDS011;29856;52.144;5.430;2023-04-03T09:01:29;4.55;;;1.15;;
44189;SDS011;29856;52.144;5.430;2023-04-03T09:04:05;3.13;;;0.98;;
44189;SDS011;29856;52.144;5.430;2023-04-03T09:06:36;1.55;;;0.88;;
44189;SDS011;29856;52.144;5.430;2023-04-03T09:14:30;3.90;;;1.20;;
44189;SDS011;29856;52.144;5.430;2023-04-03T09:20:09;3.53;;;1.00;;
44189;SDS011;29856;52.144;5.430;2023-04-03T09:22:43;1.45;;;0.88;;
44189;SDS011;29856;52.144;5.430;2023-04-03T09:27:47;2.35;;;1.33;;
44189;SDS011;29856;52.144;5.430;2023-04-03T09:30:18;0.57;;;0.38;;
44189;SDS011;29856;52.144;5.430;2023-04-03T09:32:46;8.57;;;1.40;;
44189;SDS011;29856;52.144;5.430;2023-04-03T09:38:13;0.80;;;0.57;;
44189;SDS011;29856;52.144;5.430;2023-04-03T09:40:47;1.65;;;1.20;;
44189;SDS011;29856;52.144;5.430;2023-04-03T09:43:34;1.40;;;0.70;;
44189;SDS011;29856;52.144;5.430;2023-04-03T09:48:55;3.67;;;1.95;;
44189;SDS011;29856;52.144;5.430;2023-04-03T09:51:29;1.05;;;0.43;;
44189;SDS011;29856;52.144;5.430;2023-04-03T09:53:55;2.00;;;0.70;;
44189;SDS011;29856;52.144;5.430;2023-04-03T09:56:23;1.00;;;0.50;;
44189;SDS011;29856;52.144;5.430;2023-04-03T10:01:41;0.40;;;0.40;;
44189;SDS011;29856;52.144;5.430;2023-04-03T10:04:22;1.42;;;0.57;;
44189;SDS011;29856;52.144;5.430;2023-04-03T10:06:49;1.27;;;0.50;;
44189;SDS011;29856;52.144;5.430;2023-04-03T10:09:29;2.28;;;1.05;;
44189;SDS011;29856;52.144;5.430;2023-04-03T10:12:11;0.65;;;0.60;;
44189;SDS011;29856;52.144;5.430;2023-04-03T10:14:38;1.10;;;0.47;;
44189;SDS011;29856;52.144;5.430;2023-04-03T10:29:18;2.22;;;0.60;;
44189;SDS011;29856;52.144;5.430;2023-04-03T10:34:43;1.83;;;0.50;;
44189;SDS011;29856;52.144;5.430;2023-04-03T10:40:01;1.45;;;0.60;;
44189;SDS011;29856;52.144;5.430;2023-04-03T10:42:50;3.33;;;0.70;;
44189;SDS011;29856;52.144;5.430;2023-04-03T10:53:56;1.60;;;0.70;;
44189;SDS011;29856;52.144;5.430;2023-04-03T10:56:40;1.20;;;0.70;;
44189;SDS011;29856;52.144;5.430;2023-04-03T10:59:23;1.65;;;0.40;;
44189;SDS011;29856;52.144;5.430;2023-04-03T11:01:58;3.05;;;0.40;;
44189;SDS011;29856;52.144;5.430;2023-04-03T11:04:27;1.60;;;0.57;;
44189;SDS011;29856;52.144;5.430;2023-04-03T11:14:46;2.92;;;0.95;;
44189;SDS011;29856;52.144;5.430;2023-04-03T11:17:22;2.03;;;0.80;;
44189;SDS011;29856;52.144;5.430;2023-04-03T11:20:13;1.83;;;0.87;;
44189;SDS011;29856;52.144;5.430;2023-04-03T11:22:44;1.40;;;0.70;;
44189;SDS011;29856;52.144;5.430;2023-04-03T11:25:34;1.90;;;1.08;;
44189;SDS011;29856;52.144;5.430;2023-04-03T11:28:03;2.97;;;0.80;;
44189;SDS011;29856;52.144;5.430;2023-04-03T11:36:07;2.15;;;0.90;;
44189;SDS011;29856;52.144;5.430;2023-04-03T11:38:43;2.25;;;0.77;;
44189;SDS011;29856;52.144;5.430;2023-04-03T11:41:10;1.83;;;0.82;;
44189;SDS011;29856;52.144;5.430;2023-04-03T11:43:41;2.05;;;0.82;;
44189;SDS011;29856;52.144;5.430;2023-04-03T11:46:21;3.83;;;1.15;;
44189;SDS011;29856;52.144;5.430;2023-04-03T11:48:48;2.08;;;0.93;;
44189;SDS011;29856;52.144;5.430;2023-04-03T11:53:53;1.88;;;0.63;;
44189;SDS011;29856;52.144;5.430;2023-04-03T12:01:49;1.42;;;0.80;;
44189;SDS011;29856;52.144;5.430;2023-04-03T12:04:20;0.90;;;0.80;;
44189;SDS011;29856;52.144;5.430;2023-04-03T12:09:22;2.78;;;0.50;;
44189;SDS011;29856;52.144;5.430;2023-04-03T12:12:22;1.88;;;0.80;;
44189;SDS011;29856;52.144;5.430;2023-04-03T12:15:12;3.15;;;1.10;;
44189;SDS011;29856;52.144;5.430;2023-04-03T12:17:49;3.85;;;0.80;;
44189;SDS011;29856;52.144;5.430;2023-04-03T12:23:25;1.17;;;0.75;;
44189;SDS011;29856;52.144;5.430;2023-04-03T12:25:59;2.05;;;0.70;;
44189;SDS011;29856;52.144;5.430;2023-04-03T12:28:26;2.28;;;1.55;;
44189;SDS011;29856;52.144;5.430;2023-04-03T12:30:52;2.22;;;1.00;;
44189;SDS011;29856;52.144;5.430;2023-04-03T12:36:33;2.00;;;1.15;;
44189;SDS011;29856;52.144;5.430;2023-04-03T12:39:14;2.67;;;1.25;;
44189;SDS011;29856;52.144;5.430;2023-04-03T12:41:51;2.28;;;1.25;;
44189;SDS011;29856;52.144;5.430;2023-04-03T12:44:37;2.80;;;1.15;;
44189;SDS011;29856;52.144;5.430;2023-04-03T12:47:33;1.77;;;0.90;;
44189;SDS011;29856;52.144;5.430;2023-04-03T12:50:00;2.03;;;0.88;;
44189;SDS011;29856;52.144;5.430;2023-04-03T12:52:41;2.60;;;0.70;;
44189;SDS011;29856;52.144;5.430;2023-04-03T12:55:16;3.03;;;1.00;;
44189;SDS011;29856;52.144;5.430;2023-04-03T12:57:43;1.55;;;0.90;;
44189;SDS011;29856;52.144;5.430;2023-04-03T13:00:28;3.20;;;1.10;;
44189;SDS011;29856;52.144;5.430;2023-04-03T13:02:56;2.97;;;0.90;;
44189;SDS011;29856;52.144;5.430;2023-04-03T13:05:22;0.80;;;0.75;;
44189;SDS011;29856;52.144;5.430;2023-04-03T13:07:49;1.73;;;0.60;;
44189;SDS011;29856;52.144;5.430;2023-04-03T13:10:19;4.85;;;0.90;;
44189;SDS011;29856;52.144;5.430;2023-04-03T13:12:55;1.58;;;1.00;;
44189;SDS011;29856;52.144;5.430;2023-04-03T13:15:25;0.95;;;0.85;;
44189;SDS011;29856;52.144;5.430;2023-04-03T13:17:53;3.85;;;0.95;;
44189;SDS011;29856;52.144;5.430;2023-04-03T13:20:24;4.70;;;0.98;;
44189;SDS011;29856;52.144;5.430;2023-04-03T13:22:54;4.47;;;1.10;;
44189;SDS011;29856;52.144;5.430;2023-04-03T13:25:27;3.10;;;1.00;;
44189;SDS011;29856;52.144;5.430;2023-04-03T13:27:57;2.63;;;1.00;;
44189;SDS011;29856;52.144;5.430;2023-04-03T13:30:35;4.25;;;1.63;;
44189;SDS011;29856;52.144;5.430;2023-04-03T13:33:03;3.47;;;1.13;;
44189;SDS011;29856;52.144;5.430;2023-04-03T13:35:32;3.55;;;0.98;;
44189;SDS011;29856;52.144;5.430;2023-04-03T13:38:19;2.30;;;0.98;;
44189;SDS011;29856;52.144;5.430;2023-04-03T13:40:52;1.95;;;1.05;;
44189;SDS011;29856;52.144;5.430;2023-04-03T13:43:24;2.22;;;1.05;;
44189;SDS011;29856;52.144;5.430;2023-04-03T13:48:20;2.45;;;0.90;;
44189;SDS011;29856;52.144;5.430;2023-04-03T13:50:57;3.20;;;1.08;;
44189;SDS011;29856;52.144;5.430;2023-04-03T13:53:26;1.08;;;0.88;;
44189;SDS011;29856;52.144;5.430;2023-04-03T13:56:00;7.95;;;2.03;;
44189;SDS011;29856;52.144;5.430;2023-04-03T13:58:34;2.08;;;0.90;;
44189;SDS011;29856;52.144;5.430;2023-04-03T14:01:22;4.15;;;1.17;;
44189;SDS011;29856;52.144;5.430;2023-04-03T14:03:58;6.20;;;1.00;;
44189;SDS011;29856;52.144;5.430;2023-04-03T14:06:25;3.88;;;1.10;;
44189;SDS011;29856;52.144;5.430;2023-04-03T14:08:51;3.45;;;1.27;;
44189;SDS011;29856;52.144;5.430;2023-04-03T14:11:18;5.90;;;1.25;;
44189;SDS011;29856;52.144;5.430;2023-04-03T14:13:51;2.88;;;1.00;;
44189;SDS011;29856;52.144;5.430;2023-04-03T14:16:24;2.33;;;1.20;;
44189;SDS011;29856;52.144;5.430;2023-04-03T14:18:51;2.60;;;1.60;;
44189;SDS011;29856;52.144;5.430;2023-04-03T14:21:18;3.28;;;1.17;;
44189;SDS011;29856;52.144;5.430;2023-04-03T14:23:44;2.10;;;1.20;;
44189;SDS011;29856;52.144;5.430;2023-04-03T14:26:12;2.72;;;1.17;;
44189;SDS011;29856;52.144;5.430;2023-04-03T14:28:43;5.47;;;1.55;;
44189;SDS011;29856;52.144;5.430;2023-04-03T14:31:10;3.53;;;1.20;;
44189;SDS011;29856;52.144;5.430;2023-04-03T14:33:37;3.33;;;1.20;;
44189;SDS011;29856;52.144;5.430;2023-04-03T14:36:22;3.40;;;1.23;;
44189;SDS011;29856;52.144;5.430;2023-04-03T14:38:49;4.25;;;1.55;;
44189;SDS011;29856;52.144;5.430;2023-04-03T14:41:16;4.13;;;1.20;;
44189;SDS011;29856;52.144;5.430;2023-04-03T14:43:44;1.92;;;1.20;;
44189;SDS011;29856;52.144;5.430;2023-04-03T14:46:16;6.78;;;1.77;;
44189;SDS011;29856;52.144;5.430;2023-04-03T14:48:43;2.20;;;1.17;;
44189;SDS011;29856;52.144;5.430;2023-04-03T14:51:10;4.63;;;1.40;;
44189;SDS011;29856;52.144;5.430;2023-04-03T14:53:36;1.52;;;1.20;;
44189;SDS011;29856;52.144;5.430;2023-04-03T14:56:04;2.95;;;1.60;;
44189;SDS011;29856;52.144;5.430;2023-04-03T14:58:37;5.13;;;1.60;;
44189;SDS011;29856;52.144;5.430;2023-04-03T15:01:03;3.85;;;1.63;;
44189;SDS011;29856;52.144;5.430;2023-04-03T15:03:28;5.32;;;1.70;;
44189;SDS011;29856;52.144;5.430;2023-04-03T15:05:54;3.28;;;1.58;;
44189;SDS011;29856;52.144;5.430;2023-04-03T15:08:21;1.90;;;1.30;;
44189;SDS011;29856;52.144;5.430;2023-04-03T15:10:49;4.00;;;1.30;;
44189;SDS011;29856;52.144;5.430;2023-04-03T15:13:14;4.63;;;1.27;;
44189;SDS011;29856;52.144;5.430;2023-04-03T15:15:40;3.28;;;1.50;;
44189;SDS011;29856;52.144;5.430;2023-04-03T15:18:06;2.47;;;1.10;;
44189;SDS011;29856;52.144;5.430;2023-04-03T15:20:35;3.85;;;1.33;;
44189;SDS011;29856;52.144;5.430;2023-04-03T15:23:00;5.70;;;1.80;;
44189;SDS011;29856;52.144;5.430;2023-04-03T15:25:26;3.20;;;1.67;;
44189;SDS011;29856;52.144;5.430;2023-04-03T15:27:53;3.55;;;1.10;;
44189;SDS011;29856;52.144;5.430;2023-04-03T15:30:20;5.18;;;1.83;;
44189;SDS011;29856;52.144;5.430;2023-04-03T15:32:46;2.90;;;1.42;;
44189;SDS011;29856;52.144;5.430;2023-04-03T15:35:12;3.67;;;1.27;;
44189;SDS011;29856;52.144;5.430;2023-04-03T15:37:37;6.28;;;1.50;;
44189;SDS011;29856;52.144;5.430;2023-04-03T15:40:03;2.97;;;1.58;;
44189;SDS011;29856;52.144;5.430;2023-04-03T15:42:29;5.32;;;1.73;;
44189;SDS011;29856;52.144;5.430;2023-04-03T15:44:55;5.95;;;2.55;;
44189;SDS011;29856;52.144;5.430;2023-04-03T15:47:20;3.05;;;1.50;;
44189;SDS011;29856;52.144;5.430;2023-04-03T15:49:46;3.60;;;1.00;;
44189;SDS011;29856;52.144;5.430;2023-04-03T15:52:12;4.00;;;1.50;;
44189;SDS011;29856;52.144;5.430;2023-04-03T15:54:37;6.40;;;1.63;;
44189;SDS011;29856;52.144;5.430;2023-04-03T15:57:03;2.55;;;1.20;;
44189;SDS011;29856;52.144;5.430;2023-04-03T15:59:29;3.22;;;1.42;;
44189;SDS011;29856;52.144;5.430;2023-04-03T16:01:54;5.10;;;1.60;;
44189;SDS011;29856;52.144;5.430;2023-04-03T16:04:20;3.30;;;1.70;;
44189;SDS011;29856;52.144;5.430;2023-04-03T16:06:46;4.38;;;2.08;;
44189;SDS011;29856;52.144;5.430;2023-04-03T16:09:12;2.47;;;1.23;;
44189;SDS011;29856;52.144;5.430;2023-04-03T16:11:37;4.97;;;1.48;;
44189;SDS011;29856;52.144;5.430;2023-04-03T16:14:03;3.97;;;1.70;;
44189;SDS011;29856;52.144;5.430;2023-04-03T16:16:29;2.08;;;1.00;;
44189;SDS011;29856;52.144;5.430;2023-04-03T16:18:54;5.53;;;1.65;;
44189;SDS011;29856;52.144;5.430;2023-04-03T16:21:21;3.63;;;1.50;;
44189;SDS011;29856;52.144;5.430;2023-04-03T16:23:47;2.17;;;1.50;;